Time;durP1;ratioP1;P1;durP2;ratioP2;P2;SDS_P1;SDS_P2;PMS_P1;PMS_P2;Temp;Humidity;BMP_temperature;BMP_pressure;BME280_temperature;BME280_humidity;BME280_pressure;Samples;Min_cycle;Max_cycle;Signal;HPM_P1;HPM_P2
2023/05/01 00:00:08;;;;;;;4.40;1.80;;;11.20;99.90;;;;;;5030475;28;20038;-52
2023/05/01 00:02:35;;;;;;;3.40;1.80;;;11.10;99.90;;;;;;5030428;28;20564;-50
2023/05/01 00:05:03;;;;;;;5.63;2.00;;;11.10;99.90;;;;;;5030378;28;20134;-50
2023/05/01 00:07:30;;;;;;;2.93;1.70;;;11.00;99.90;;;;;;5030189;28;20058;-53
2023/05/01 00:09:56;;;;;;;3.77;1.90;;;11.00;99.90;;;;;;5030301;28;20061;-51
2023/05/01 00:12:22;;;;;;;3.43;1.87;;;11.00;99.90;;;;;;5030582;28;20108;-51
2023/05/01 00:14:49;;;;;;;3.90;1.97;;;11.00;99.90;;;;;;5032525;28;20084;-52
2023/05/01 00:17:15;;;;;;;5.20;2.27;;;11.00;99.90;;;;;;5034616;28;20501;-49
2023/05/01 00:19:41;;;;;;;4.10;1.90;;;10.90;99.90;;;;;;5034402;28;20036;-49
2023/05/01 00:22:06;;;;;;;5.43;1.90;;;10.90;99.90;;;;;;5034401;28;20037;-50
2023/05/01 00:24:32;;;;;;;4.80;1.90;;;10.80;99.90;;;;;;5034336;28;20037;-52
2023/05/01 00:26:58;;;;;;;7.67;2.00;;;10.80;99.90;;;;;;5034070;28;20487;-52
2023/05/01 00:29:24;;;;;;;6.37;1.70;;;10.80;99.90;;;;;;5034288;28;20026;-52
2023/05/01 00:31:50;;;;;;;5.43;2.30;;;10.70;99.90;;;;;;5034231;28;20035;-48
2023/05/01 00:34:16;;;;;;;4.70;1.90;;;10.70;99.90;;;;;;5034387;28;20416;-52
2023/05/01 00:36:42;;;;;;;4.83;2.13;;;10.60;99.90;;;;;;5016251;28;20504;-49
2023/05/01 00:39:07;;;;;;;5.73;2.03;;;10.60;99.90;;;;;;5016212;28;20080;-53
2023/05/01 00:41:34;;;;;;;4.33;1.93;;;10.50;99.90;;;;;;5034163;28;20083;-52
2023/05/01 00:43:59;;;;;;;3.33;1.53;;;10.40;99.90;;;;;;5033819;28;20038;-51
2023/05/01 00:46:27;;;;;;;3.87;1.70;;;10.40;99.90;;;;;;5015872;28;20033;-50
2023/05/01 00:48:53;;;;;;;4.20;1.93;;;10.30;99.90;;;;;;5033994;28;20029;-52
2023/05/01 00:51:21;;;;;;;3.70;1.73;;;10.20;99.90;;;;;;5033896;28;20021;-52
2023/05/01 00:53:47;;;;;;;3.57;1.70;;;10.10;99.90;;;;;;5033643;28;20021;-50
2023/05/01 00:56:14;;;;;;;5.03;2.63;;;10.10;99.90;;;;;;5033847;28;20036;-52
2023/05/01 00:58:40;;;;;;;6.53;1.87;;;10.10;99.90;;;;;;5015818;28;20528;-49
2023/05/01 01:01:08;;;;;;;4.37;1.90;;;10.00;99.90;;;;;;5034140;28;20033;-51
2023/05/01 01:03:34;;;;;;;4.43;1.77;;;9.90;99.90;;;;;;5015581;28;20025;-52
2023/05/01 01:06:06;;;;;;;4.43;2.07;;;9.80;99.90;;;;;;5015759;28;20112;-51
2023/05/01 01:08:42;;;;;;;4.97;1.87;;;9.80;99.90;;;;;;5015598;28;20026;-51
2023/05/01 01:11:33;;;;;;;4.60;1.77;;;9.70;99.90;;;;;;5033661;28;20043;-51
2023/05/01 01:14:07;;;;;;;3.43;1.90;;;9.60;99.90;;;;;;5033360;28;20025;-51
2023/05/01 01:16:48;;;;;;;4.83;2.07;;;9.60;99.90;;;;;;5015449;28;20034;-50
2023/05/01 01:19:19;;;;;;;6.87;2.10;;;9.60;99.90;;;;;;5033444;28;20041;-50
2023/05/01 01:21:51;;;;;;;4.43;1.80;;;9.50;99.90;;;;;;5033181;28;20600;-51
2023/05/01 01:24:29;;;;;;;5.63;1.80;;;9.40;99.90;;;;;;5033161;28;20124;-53
2023/05/01 01:27:03;;;;;;;3.37;1.77;;;9.30;99.90;;;;;;5031713;28;20029;-50
2023/05/01 01:29:46;;;;;;;3.27;1.83;;;9.30;99.90;;;;;;5033205;28;20386;-49
2023/05/01 01:32:33;;;;;;;6.73;2.20;;;9.30;99.90;;;;;;5015309;28;20083;-52
2023/05/01 01:35:06;;;;;;;5.10;1.90;;;9.20;99.90;;;;;;5015123;28;20057;-49
2023/05/01 01:37:35;;;;;;;4.77;2.40;;;9.30;99.90;;;;;;5015097;28;20141;-51
2023/05/01 01:40:11;;;;;;;4.53;1.92;;;9.30;99.90;;;;;;5033009;28;20039;-49
2023/05/01 01:42:41;;;;;;;7.23;2.20;;;9.30;99.90;;;;;;5032938;28;20068;-53
2023/05/01 01:45:29;;;;;;;8.20;2.57;;;9.30;99.90;;;;;;5032786;28;20033;-49
2023/05/01 01:47:56;;;;;;;6.47;2.37;;;9.40;99.90;;;;;;5027320;22;20052;-49
2023/05/01 01:50:25;;;;;;;4.80;2.33;;;9.40;99.90;;;;;;5014974;28;20116;-53
2023/05/01 01:52:53;;;;;;;5.60;1.98;;;9.40;99.90;;;;;;5032699;28;20017;-49
2023/05/01 01:55:24;;;;;;;5.30;2.27;;;9.40;99.90;;;;;;5014785;28;20044;-50
2023/05/01 01:57:51;;;;;;;4.93;1.90;;;9.40;99.90;;;;;;5032643;28;20025;-54
2023/05/01 02:00:19;;;;;;;6.53;2.03;;;9.40;99.90;;;;;;5015029;28;20029;-50
2023/05/01 02:02:48;;;;;;;3.60;2.00;;;9.50;99.90;;;;;;5014842;28;20174;-51
2023/05/01 02:05:16;;;;;;;8.10;1.97;;;9.40;99.90;;;;;;5014434;28;20033;-49
2023/05/01 02:07:48;;;;;;;3.80;1.83;;;9.50;99.90;;;;;;5032173;28;20025;-49
2023/05/01 02:10:16;;;;;;;5.37;1.70;;;9.50;99.90;;;;;;5014717;28;20030;-53
2023/05/01 02:12:45;;;;;;;4.50;1.70;;;9.50;99.90;;;;;;5014603;28;20026;-51
2023/05/01 02:15:14;;;;;;;3.97;1.77;;;9.50;99.90;;;;;;5032125;28;20025;-50
2023/05/01 02:17:40;;;;;;;3.73;1.63;;;9.60;99.90;;;;;;5031971;28;20033;-52
2023/05/01 02:20:09;;;;;;;4.63;1.93;;;9.60;99.90;;;;;;5014388;28;20063;-52
2023/05/01 02:22:36;;;;;;;4.05;1.88;;;9.60;99.90;;;;;;5014248;28;20437;-51
2023/05/01 02:25:03;;;;;;;6.07;1.90;;;9.60;99.90;;;;;;5014091;28;20036;-49
2023/05/01 02:27:37;;;;;;;3.60;1.90;;;9.60;99.90;;;;;;5014102;28;20049;-52
2023/05/01 02:30:04;;;;;;;3.77;2.00;;;9.60;99.90;;;;;;5014321;28;20068;-52
2023/05/01 02:32:30;;;;;;;4.00;1.80;;;9.50;99.90;;;;;;5014186;28;20021;-50
2023/05/01 02:34:56;;;;;;;3.87;1.63;;;9.50;99.90;;;;;;5014134;28;20040;-49
2023/05/01 02:37:22;;;;;;;3.70;2.00;;;9.60;99.90;;;;;;5013601;28;20401;-48
2023/05/01 02:39:49;;;;;;;4.20;1.60;;;9.60;99.90;;;;;;5014193;28;20044;-53
2023/05/01 02:42:16;;;;;;;4.67;1.87;;;9.60;99.90;;;;;;5014164;28;20038;-51
2023/05/01 02:44:49;;;;;;;3.43;1.73;;;9.60;99.90;;;;;;5031669;28;20172;-49
2023/05/01 02:47:20;;;;;;;3.27;1.73;;;9.60;99.90;;;;;;5013744;28;20030;-53
2023/05/01 02:49:47;;;;;;;4.73;2.00;;;9.60;99.90;;;;;;5031760;28;20033;-51
2023/05/01 02:52:15;;;;;;;4.47;1.90;;;9.60;99.90;;;;;;5013995;28;20500;-52
2023/05/01 02:54:44;;;;;;;4.25;1.70;;;9.60;99.90;;;;;;5013932;28;20034;-48
2023/05/01 02:57:10;;;;;;;4.20;1.80;;;9.60;99.90;;;;;;5013658;28;20494;-51
2023/05/01 02:59:36;;;;;;;5.23;1.77;;;9.60;99.90;;;;;;5031492;28;20036;-52
2023/05/01 03:02:03;;;;;;;4.40;1.80;;;9.50;99.90;;;;;;5031774;28;20025;-51
2023/05/01 03:04:28;;;;;;;4.57;2.00;;;9.50;99.90;;;;;;5013635;28;20061;-52
2023/05/01 03:06:54;;;;;;;3.63;1.80;;;9.40;99.90;;;;;;5013586;28;20064;-50
2023/05/01 03:09:21;;;;;;;5.03;1.67;;;9.40;99.90;;;;;;5013815;28;20033;-51
2023/05/01 03:11:47;;;;;;;3.47;1.80;;;9.30;99.90;;;;;;5013831;28;20029;-47
2023/05/01 03:14:12;;;;;;;4.47;1.73;;;9.30;99.90;;;;;;5013677;28;20033;-50
2023/05/01 03:16:39;;;;;;;4.17;1.93;;;9.30;99.90;;;;;;5031554;28;20029;-52
2023/05/01 03:19:06;;;;;;;5.13;2.33;;;9.30;99.90;;;;;;5031386;28;20354;-48
2023/05/01 03:21:32;;;;;;;6.03;2.07;;;9.30;99.90;;;;;;5031341;28;20033;-50
2023/05/01 03:23:58;;;;;;;3.83;1.97;;;9.20;99.90;;;;;;5031066;28;20391;-51
2023/05/01 03:26:25;;;;;;;5.40;1.80;;;9.20;99.90;;;;;;5013381;28;20029;-51
2023/05/01 03:28:51;;;;;;;5.47;2.53;;;9.20;99.90;;;;;;5013234;28;20029;-50
2023/05/01 03:31:17;;;;;;;4.67;1.90;;;9.20;99.90;;;;;;5013322;28;20111;-52
2023/05/01 03:33:43;;;;;;;4.60;1.67;;;9.20;99.90;;;;;;5013222;28;20540;-49
2023/05/01 03:36:12;;;;;;;4.63;1.70;;;9.20;99.90;;;;;;5013245;28;20029;-50
2023/05/01 03:38:37;;;;;;;2.70;1.67;;;9.20;99.90;;;;;;5013045;28;20080;-49
2023/05/01 03:41:09;;;;;;;4.87;2.17;;;9.20;99.90;;;;;;5030869;28;20046;-48
2023/05/01 03:43:44;;;;;;;4.67;1.90;;;9.20;99.90;;;;;;5030891;28;20033;-51
2023/05/01 03:46:20;;;;;;;4.70;1.90;;;9.10;99.90;;;;;;5012827;28;20553;-52
2023/05/01 03:48:46;;;;;;;3.83;2.10;;;9.10;99.90;;;;;;5012159;28;20037;-53
2023/05/01 03:51:12;;;;;;;5.57;1.80;;;9.10;99.90;;;;;;5012975;28;20029;-50
2023/05/01 03:53:38;;;;;;;4.17;1.80;;;9.10;99.90;;;;;;5012769;28;20029;-53
2023/05/01 03:56:05;;;;;;;7.83;2.43;;;9.10;99.90;;;;;;4996917;28;20029;-49
2023/05/01 03:58:31;;;;;;;5.70;2.03;;;9.10;99.90;;;;;;5012648;28;20520;-50
2023/05/01 04:00:59;;;;;;;5.53;2.10;;;9.00;99.90;;;;;;5012878;28;20029;-49
2023/05/01 04:03:27;;;;;;;4.32;1.60;;;9.00;99.90;;;;;;5012786;28;20128;-49
2023/05/01 04:05:54;;;;;;;4.07;1.90;;;9.00;99.90;;;;;;5012611;28;20041;-49
2023/05/01 04:08:20;;;;;;;5.50;2.00;;;8.90;99.90;;;;;;5012415;28;20095;-49
2023/05/01 04:10:46;;;;;;;4.37;2.10;;;8.90;99.90;;;;;;5030403;28;20024;-48
2023/05/01 04:13:12;;;;;;;4.27;2.10;;;8.90;99.90;;;;;;5030472;28;20402;-51
2023/05/01 04:15:38;;;;;;;6.93;2.50;;;8.90;99.90;;;;;;5012584;28;20037;-48
2023/05/01 04:18:04;;;;;;;4.23;2.13;;;8.80;99.90;;;;;;5012480;28;20120;-49
2023/05/01 04:20:31;;;;;;;5.30;2.30;;;8.80;99.90;;;;;;5012629;28;20030;-52
2023/05/01 04:22:57;;;;;;;6.60;2.50;;;8.90;99.90;;;;;;5012593;28;20394;-52
2023/05/01 04:25:23;;;;;;;5.37;2.37;;;8.90;99.90;;;;;;5030067;28;20025;-52
2023/05/01 04:27:52;;;;;;;3.70;2.08;;;8.80;99.90;;;;;;5012351;28;20079;-50
2023/05/01 04:30:18;;;;;;;6.53;2.40;;;8.80;99.90;;;;;;5012732;28;20402;-51
2023/05/01 04:32:44;;;;;;;4.17;2.23;;;8.80;99.90;;;;;;5012527;28;20032;-50
2023/05/01 04:35:11;;;;;;;4.90;2.13;;;8.80;99.90;;;;;;5012211;28;20086;-50
2023/05/01 04:37:39;;;;;;;4.80;2.17;;;8.80;99.90;;;;;;5012572;28;20395;-49
2023/05/01 04:40:06;;;;;;;3.70;2.27;;;8.80;99.90;;;;;;5012317;28;20049;-52
2023/05/01 04:42:32;;;;;;;3.93;1.90;;;8.80;99.90;;;;;;5012518;28;20127;-47
2023/05/01 04:45:01;;;;;;;4.60;2.40;;;8.80;99.90;;;;;;5012192;28;20493;-51
2023/05/01 04:47:27;;;;;;;5.10;2.10;;;8.80;99.90;;;;;;5029825;28;20029;-48
2023/05/01 04:49:53;;;;;;;4.37;1.97;;;8.80;99.90;;;;;;5029875;28;20389;-49
2023/05/01 04:52:19;;;;;;;5.13;2.43;;;8.80;99.90;;;;;;5012304;28;20033;-52
2023/05/01 04:54:56;;;;;;;3.67;2.00;;;8.90;99.90;;;;;;5012333;28;20029;-50
2023/05/01 04:57:23;;;;;;;3.50;1.77;;;8.90;99.90;;;;;;5012010;28;20032;-48
2023/05/01 04:59:50;;;;;;;5.87;2.30;;;9.00;99.90;;;;;;5030690;28;20123;-52
2023/05/01 05:02:16;;;;;;;3.40;1.93;;;9.00;99.90;;;;;;5015943;28;20519;-51
2023/05/01 05:04:41;;;;;;;4.33;1.93;;;9.10;99.90;;;;;;5015517;28;20038;-48
2023/05/01 05:07:08;;;;;;;4.17;2.17;;;9.20;99.90;;;;;;5015588;28;20079;-49
2023/05/01 05:09:52;;;;;;;4.07;2.07;;;9.20;99.90;;;;;;5033903;28;20036;-49
2023/05/01 05:12:18;;;;;;;5.27;2.27;;;9.30;99.90;;;;;;5015754;28;20026;-49
2023/05/01 05:14:46;;;;;;;4.00;2.20;;;9.40;99.90;;;;;;5015462;28;20521;-49
2023/05/01 05:17:14;;;;;;;;;;;9.50;99.90;;;;;;5015904;28;20397;-49
2023/05/01 05:19:40;;;;;;;5.03;2.13;;;9.60;99.90;;;;;;5033439;28;19916;-50
2023/05/01 05:22:06;;;;;;;3.97;2.00;;;9.70;99.90;;;;;;5015665;28;20033;-52
2023/05/01 05:24:41;;;;;;;3.57;1.87;;;9.90;99.90;;;;;;5015306;28;20121;-48
2023/05/01 05:27:07;;;;;;;4.23;1.87;;;10.00;99.90;;;;;;5015251;28;20120;-47
2023/05/01 05:29:33;;;;;;;5.37;2.40;;;10.10;99.90;;;;;;5032978;28;20033;-49
2023/05/01 05:32:00;;;;;;;4.63;2.23;;;10.30;99.90;;;;;;5015408;28;20035;-50
2023/05/01 05:34:26;;;;;;;5.37;2.37;;;10.40;99.90;;;;;;5015165;28;20521;-52
2023/05/01 05:36:51;;;;;;;4.33;2.00;;;10.50;99.90;;;;;;5032881;28;20029;-49
2023/05/01 05:39:22;;;;;;;4.10;2.20;;;10.60;99.90;;;;;;5015181;28;20053;-48
2023/05/01 05:41:48;;;;;;;6.60;2.13;;;10.80;99.90;;;;;;5015239;28;20120;-49
2023/05/01 05:44:14;;;;;;;4.07;1.77;;;11.10;99.90;;;;;;5032490;28;20103;-49
2023/05/01 05:46:41;;;;;;;3.57;1.77;;;11.40;99.90;;;;;;5014616;28;20112;-48
2023/05/01 05:49:08;;;;;;;5.93;2.33;;;11.50;99.90;;;;;;5015163;28;20112;-50
2023/05/01 05:51:34;;;;;;;3.73;1.50;;;11.70;99.90;;;;;;5015269;28;20026;-49
2023/05/01 05:54:01;;;;;;;2.87;1.43;;;11.80;99.90;;;;;;5014787;28;20032;-50
2023/05/01 05:56:27;;;;;;;3.43;1.70;;;12.00;99.90;;;;;;5014960;28;20025;-49
2023/05/01 05:58:54;;;;;;;2.03;1.33;;;12.10;99.90;;;;;;5014833;28;20478;-49
2023/05/01 06:01:19;;;;;;;3.38;1.30;;;12.20;99.90;;;;;;5032678;28;20224;-47
2023/05/01 06:03:45;;;;;;;2.03;1.08;;;12.20;99.90;;;;;;5014580;28;20074;-49
2023/05/01 06:06:11;;;;;;;2.85;1.20;;;12.40;99.90;;;;;;5014748;28;20118;-50
2023/05/01 06:08:37;;;;;;;2.67;1.08;;;12.50;99.90;;;;;;5014369;28;20030;-52
2023/05/01 06:11:07;;;;;;;2.33;1.00;;;12.60;99.90;;;;;;5014437;28;20490;-51
2023/05/01 06:13:35;;;;;;;3.15;1.40;;;12.70;99.90;;;;;;5014003;28;20033;-52
2023/05/01 06:16:01;;;;;;;3.05;1.20;;;12.90;99.90;;;;;;5014650;28;20033;-53
2023/05/01 06:18:28;;;;;;;2.08;1.23;;;13.00;99.90;;;;;;5014238;28;20034;-52
2023/05/01 06:20:55;;;;;;;1.92;1.08;;;13.10;99.90;;;;;;5014557;28;20441;-52
2023/05/01 06:23:22;;;;;;;4.05;1.25;;;13.20;99.90;;;;;;5014273;28;20139;-50
2023/05/01 06:26:07;;;;;;;3.45;1.85;;;13.20;99.90;;;;;;5031650;28;20116;-51
2023/05/01 06:28:33;;;;;;;2.35;1.35;;;13.10;99.90;;;;;;5013926;28;20116;-54
2023/05/01 06:31:00;;;;;;;3.67;1.30;;;13.10;99.90;;;;;;5014331;28;20437;-51
2023/05/01 06:33:30;;;;;;;2.08;1.15;;;13.30;99.90;;;;;;5013969;28;20116;-49
2023/05/01 06:36:07;;;;;;;2.45;1.10;;;13.20;99.90;;;;;;5014139;28;20026;-50
2023/05/01 06:38:33;;;;;;;3.13;1.00;;;13.40;99.90;;;;;;5031462;28;20032;-51
2023/05/01 06:40:59;;;;;;;2.83;1.10;;;13.40;99.90;;;;;;5014080;28;20025;-52
2023/05/01 06:43:29;;;;;;;3.70;1.10;;;13.50;99.90;;;;;;5031569;28;20100;-51
2023/05/01 06:45:55;;;;;;;4.68;1.10;;;13.60;99.90;;;;;;5031623;28;20060;-52
2023/05/01 06:48:21;;;;;;;2.05;1.15;;;13.80;99.90;;;;;;5013605;28;20048;-51
2023/05/01 06:50:46;;;;;;;4.18;1.20;;;13.80;99.90;;;;;;5031488;28;20021;-52
2023/05/01 06:53:12;;;;;;;2.38;1.30;;;13.80;99.90;;;;;;5013884;28;20048;-49
2023/05/01 06:55:38;;;;;;;2.17;1.10;;;13.90;99.90;;;;;;5031381;28;20389;-52
2023/05/01 06:58:05;;;;;;;2.05;1.23;;;14.00;99.90;;;;;;5013619;28;20037;-49
2023/05/01 07:00:32;;;;;;;3.45;1.35;;;14.20;99.90;;;;;;5031462;28;20034;-52
2023/05/01 07:02:58;;;;;;;2.38;1.25;;;14.30;99.90;;;;;;5031371;28;20026;-50
2023/05/01 07:05:24;;;;;;;3.63;1.42;;;14.40;99.90;;;;;;5031006;28;20516;-50
2023/05/01 07:07:50;;;;;;;2.15;1.25;;;14.40;99.90;;;;;;5030936;28;20394;-50
2023/05/01 07:10:15;;;;;;;2.42;1.35;;;14.50;99.90;;;;;;5031289;28;20037;-53
2023/05/01 07:12:41;;;;;;;4.13;1.15;;;14.60;99.90;;;;;;5031163;28;20105;-51
2023/05/01 07:15:07;;;;;;;2.05;1.30;;;14.80;99.90;;;;;;5030978;28;20037;-52
2023/05/01 07:17:33;;;;;;;3.38;1.27;;;14.80;99.90;;;;;;5030888;28;20044;-51
2023/05/01 07:20:00;;;;;;;2.53;1.50;;;15.00;99.90;;;;;;5030980;28;20037;-51
2023/05/01 07:22:27;;;;;;;2.55;1.23;;;15.00;99.90;;;;;;5031209;28;20060;-53
2023/05/01 07:24:53;;;;;;;1.48;0.98;;;15.00;99.90;;;;;;5030933;28;20445;-51
2023/05/01 07:27:19;;;;;;;2.60;1.10;;;15.20;99.90;;;;;;5030586;28;20034;-52
2023/05/01 07:29:45;;;;;;;3.17;1.30;;;15.20;99.80;;;;;;5030795;28;20037;-51
2023/05/01 07:32:10;;;;;;;4.00;1.38;;;15.10;99.90;;;;;;5030927;28;20021;-47
2023/05/01 07:34:36;;;;;;;12.13;6.20;;;15.10;99.90;;;;;;5030492;28;20505;-49
2023/05/01 07:37:03;;;;;;;3.92;2.00;;;15.10;99.90;;;;;;5030688;28;20331;-52
2023/05/01 07:39:30;;;;;;;3.50;1.25;;;15.20;99.90;;;;;;5030788;28;20087;-54
2023/05/01 07:41:58;;;;;;;2.30;1.23;;;15.20;99.30;;;;;;5030844;28;20080;-52
2023/05/01 07:44:24;;;;;;;7.03;2.58;;;15.20;99.40;;;;;;5030519;28;20115;-53
2023/05/01 07:46:50;;;;;;;2.88;1.40;;;15.20;99.80;;;;;;5030271;28;20482;-51
2023/05/01 07:49:15;;;;;;;3.75;1.30;;;15.30;99.50;;;;;;5044216;22;20124;-51
2023/05/01 07:51:41;;;;;;;1.95;0.98;;;15.30;99.40;;;;;;5012821;28;20025;-50
2023/05/01 07:54:07;;;;;;;2.47;1.30;;;15.30;99.10;;;;;;5030200;28;20145;-49
2023/05/01 07:56:33;;;;;;;1.95;1.27;;;15.30;99.10;;;;;;5030448;28;20034;-50
2023/05/01 07:58:58;;;;;;;1.92;1.17;;;15.50;99.10;;;;;;5030336;28;20030;-48
2023/05/01 08:01:24;;;;;;;4.65;1.50;;;15.70;98.40;;;;;;5030256;28;20109;-48
2023/05/01 08:03:50;;;;;;;3.08;1.58;;;15.80;98.30;;;;;;5029999;28;20029;-48
2023/05/01 08:06:16;;;;;;;3.08;1.50;;;16.00;98.30;;;;;;5030304;28;20021;-47
2023/05/01 08:08:42;;;;;;;2.72;1.50;;;16.10;97.80;;;;;;5030332;28;20112;-48
2023/05/01 08:11:08;;;;;;;2.65;1.23;;;16.20;98.40;;;;;;5030609;28;20581;-49
2023/05/01 08:13:34;;;;;;;2.70;1.40;;;16.40;97.30;;;;;;5029967;28;20034;-48
2023/05/01 08:16:03;;;;;;;2.30;1.23;;;16.30;97.80;;;;;;5030387;28;20033;-52
2023/05/01 08:18:29;;;;;;;;;;;16.50;97.30;;;;;;5030795;28;20029;-50
2023/05/01 08:20:55;;;;;;;3.47;1.30;;;16.70;96.80;;;;;;5030180;28;20293;-49
2023/05/01 08:23:21;;;;;;;2.33;0.98;;;16.70;97.10;;;;;;5030026;28;20051;-51
2023/05/01 08:25:49;;;;;;;4.68;1.63;;;16.80;96.30;;;;;;5030169;28;20029;-47
2023/05/01 08:28:16;;;;;;;3.25;1.40;;;16.90;96.60;;;;;;5030029;28;20036;-49
2023/05/01 08:30:43;;;;;;;5.20;1.90;;;16.80;97.10;;;;;;5030115;28;20029;-47
2023/05/01 08:33:09;;;;;;;4.55;2.20;;;16.90;97.30;;;;;;5030266;28;20034;-50
2023/05/01 08:35:35;;;;;;;1.92;1.13;;;17.10;96.20;;;;;;5031529;28;20096;-50
2023/05/01 08:38:01;;;;;;;3.58;1.52;;;17.10;96.90;;;;;;5033899;28;20563;-47
2023/05/01 08:40:30;;;;;;;2.50;1.40;;;17.20;96.10;;;;;;5033957;28;20060;-46
2023/05/01 08:42:56;;;;;;;2.40;1.10;;;17.10;96.00;;;;;;5033990;28;20072;-48
2023/05/01 08:45:24;;;;;;;3.47;1.48;;;17.30;96.00;;;;;;5015922;28;20057;-47
2023/05/01 08:47:51;;;;;;;2.95;1.13;;;17.40;96.40;;;;;;5033555;28;20025;-49
2023/05/01 08:50:17;;;;;;;2.90;1.38;;;17.40;96.40;;;;;;5033872;28;20033;-47
2023/05/01 08:52:44;;;;;;;2.67;1.10;;;17.60;95.80;;;;;;5034062;28;20029;-48
2023/05/01 08:55:12;;;;;;;2.58;1.30;;;17.60;96.20;;;;;;5033528;28;20269;-47
2023/05/01 08:57:39;;;;;;;2.80;1.20;;;17.80;96.70;;;;;;5033458;28;20033;-50
2023/05/01 09:00:06;;;;;;;2.00;1.25;;;17.90;96.40;;;;;;5033680;28;20038;-50
2023/05/01 09:02:34;;;;;;;3.90;1.20;;;18.20;95.10;;;;;;5033693;28;20116;-52
2023/05/01 09:05:02;;;;;;;3.47;1.23;;;18.30;94.20;;;;;;5033198;28;20379;-49
2023/05/01 09:07:29;;;;;;;2.08;1.20;;;18.50;94.60;;;;;;5033345;28;20470;-46
2023/05/01 09:09:55;;;;;;;2.90;1.30;;;18.50;94.70;;;;;;5033845;28;20044;-47
2023/05/01 09:12:25;;;;;;;3.70;1.33;;;18.50;93.70;;;;;;5033532;28;20029;-51
2023/05/01 09:14:55;;;;;;;2.80;1.45;;;18.50;93.40;;;;;;5033038;28;20502;-47
2023/05/01 09:17:23;;;;;;;2.78;1.40;;;18.60;92.80;;;;;;5033140;28;20034;-48
2023/05/01 09:19:49;;;;;;;3.08;1.27;;;18.60;93.00;;;;;;5033359;28;20505;-47
2023/05/01 09:22:17;;;;;;;1.67;1.13;;;18.80;92.80;;;;;;5033686;28;20030;-52
2023/05/01 09:24:43;;;;;;;1.85;1.20;;;18.70;92.60;;;;;;5032756;28;20038;-50
2023/05/01 09:27:12;;;;;;;2.33;1.30;;;18.90;92.70;;;;;;5033407;28;20025;-47
2023/05/01 09:29:39;;;;;;;2.38;1.30;;;18.80;92.40;;;;;;5033080;28;20033;-47
2023/05/01 09:32:21;;;;;;;2.67;1.70;;;18.90;92.60;;;;;;5033228;28;20436;-52
2023/05/01 09:34:48;;;;;;;3.15;1.08;;;19.10;92.70;;;;;;5033003;28;20029;-50
2023/05/01 09:37:30;;;;;;;4.45;1.25;;;19.00;93.30;;;;;;5032804;28;20497;-50
2023/05/01 09:40:10;;;;;;;2.83;1.40;;;19.10;91.80;;;;;;5032730;28;20029;-52
2023/05/01 09:42:50;;;;;;;3.95;1.60;;;19.20;92.00;;;;;;5033085;28;20052;-47
2023/05/01 09:45:22;;;;;;;2.60;1.50;;;19.20;91.90;;;;;;5032692;28;20485;-47
2023/05/01 09:47:48;;;;;;;4.45;1.63;;;19.20;92.30;;;;;;5031404;28;20052;-52
2023/05/01 09:50:34;;;;;;;2.42;1.30;;;19.10;93.00;;;;;;5032690;28;20390;-50
2023/05/01 09:53:01;;;;;;;2.42;1.38;;;19.20;92.80;;;;;;5032827;28;20022;-47
2023/05/01 09:55:27;;;;;;;2.72;1.45;;;19.30;92.10;;;;;;5032342;28;20033;-48
2023/05/01 09:57:52;;;;;;;2.10;1.13;;;19.50;92.00;;;;;;5032557;28;20039;-51
2023/05/01 10:00:20;;;;;;;3.38;1.75;;;19.50;92.50;;;;;;5032643;28;20508;-50
2023/05/01 10:02:47;;;;;;;2.70;1.70;;;19.50;91.20;;;;;;5032754;28;20033;-51
2023/05/01 10:05:14;;;;;;;2.42;1.30;;;19.50;91.60;;;;;;5032102;28;20030;-49
2023/05/01 10:08:13;;;;;;;3.60;1.80;;;19.60;91.80;;;;;;5032417;28;20116;-49
2023/05/01 10:10:40;;;;;;;3.42;1.60;;;19.50;92.10;;;;;;5017088;28;20041;-50
2023/05/01 10:13:14;;;;;;;3.53;1.83;;;19.80;90.30;;;;;;5032444;28;20033;-49
2023/05/01 10:15:39;;;;;;;4.28;2.00;;;19.80;90.90;;;;;;5031790;28;20095;-47
2023/05/01 10:18:08;;;;;;;4.03;2.00;;;19.50;90.90;;;;;;5032189;28;20030;-48
2023/05/01 10:20:34;;;;;;;4.53;2.08;;;19.70;91.40;;;;;;5032265;28;20030;-47
2023/05/01 10:23:02;;;;;;;6.35;2.28;;;19.90;91.30;;;;;;5032317;28;20040;-48
2023/05/01 10:25:30;;;;;;;4.45;2.40;;;20.10;90.90;;;;;;5031652;28;20047;-52
2023/05/01 10:27:56;;;;;;;5.33;2.07;;;20.30;92.10;;;;;;5031974;28;20458;-48
2023/05/01 10:30:22;;;;;;;6.25;3.05;;;20.50;92.30;;;;;;5031925;28;20025;-48
2023/05/01 10:32:48;;;;;;;7.30;2.85;;;20.70;92.80;;;;;;5032261;28;20428;-49
2023/05/01 10:35:28;;;;;;;5.97;3.63;;;21.10;90.70;;;;;;5031478;28;20040;-51
2023/05/01 10:38:03;;;;;;;5.80;2.40;;;21.70;89.00;;;;;;5031735;28;20037;-49
2023/05/01 10:40:38;;;;;;;5.50;2.83;;;21.80;89.80;;;;;;5031701;28;20033;-48
2023/05/01 10:43:27;;;;;;;7.45;3.42;;;22.10;87.90;;;;;;5031984;28;20422;-46
2023/05/01 10:46:17;;;;;;;4.95;2.40;;;22.40;86.40;;;;;;5031709;28;20076;-45
2023/05/01 10:48:43;;;;;;;6.45;2.75;;;22.60;82.80;;;;;;5019736;28;20410;-45
2023/05/01 10:51:10;;;;;;;5.97;3.88;;;22.70;84.30;;;;;;5031893;28;20033;-49
2023/05/01 10:53:40;;;;;;;6.97;2.85;;;22.80;80.80;;;;;;5031198;28;20034;-50
2023/05/01 10:56:28;;;;;;;4.03;2.10;;;22.90;80.40;;;;;;5031600;28;20033;-49
2023/05/01 10:58:55;;;;;;;;;;;22.50;79.70;;;;;;5032091;28;20041;-47
2023/05/01 11:01:40;;;;;;;5.38;2.20;;;21.70;87.80;;;;;;5031455;28;19912;-48
2023/05/01 11:04:21;;;;;;;4.60;2.72;;;21.60;88.40;;;;;;5030864;28;20098;-50
2023/05/01 11:07:04;;;;;;;5.63;2.53;;;21.30;90.00;;;;;;5031327;28;20030;-52
2023/05/01 11:09:53;;;;;;;6.18;3.33;;;21.50;90.10;;;;;;5031106;28;20099;-46
2023/05/01 11:12:43;;;;;;;7.15;3.10;;;21.60;86.40;;;;;;5031485;28;20037;-47
2023/05/01 11:15:09;;;;;;;6.05;3.20;;;21.90;87.00;;;;;;5030676;28;20065;-48
2023/05/01 11:17:41;;;;;;;4.47;2.92;;;21.90;86.00;;;;;;5030961;28;20126;-51
2023/05/01 11:20:10;;;;;;;5.50;2.72;;;21.50;87.70;;;;;;5030898;28;20029;-48
2023/05/01 11:22:38;;;;;;;4.30;2.58;;;21.10;87.70;;;;;;5031080;28;20033;-49
2023/05/01 11:25:19;;;;;;;4.00;2.08;;;21.30;88.10;;;;;;5012718;28;20029;-51
2023/05/01 11:27:49;;;;;;;4.45;2.08;;;21.50;87.00;;;;;;5030731;28;20485;-48
2023/05/01 11:30:15;;;;;;;6.00;2.80;;;21.60;83.30;;;;;;5031348;28;20026;-48
2023/05/01 11:32:46;;;;;;;4.35;2.28;;;21.70;84.20;;;;;;5031019;28;20045;-51
2023/05/01 11:35:27;;;;;;;5.20;2.38;;;21.70;84.30;;;;;;5030487;28;20042;-48
2023/05/01 11:37:55;;;;;;;4.45;2.42;;;21.80;85.40;;;;;;5030666;28;20504;-50
2023/05/01 11:40:31;;;;;;;5.20;2.83;;;21.60;85.70;;;;;;5030796;28;20463;-51
2023/05/01 11:43:07;;;;;;;2.70;1.52;;;21.60;82.30;;;;;;5030594;28;20021;-52
2023/05/01 11:45:34;;;;;;;2.55;1.60;;;21.40;87.40;;;;;;5030103;28;20083;-48
2023/05/01 11:48:01;;;;;;;1.83;1.27;;;21.50;87.10;;;;;;5030302;28;20034;-48
2023/05/01 11:50:37;;;;;;;2.90;1.95;;;21.50;83.60;;;;;;5030693;28;20391;-50
2023/05/01 11:53:11;;;;;;;2.30;1.30;;;21.70;82.70;;;;;;5030724;28;20021;-51
2023/05/01 11:55:37;;;;;;;2.45;1.40;;;21.90;84.60;;;;;;5030233;28;20041;-49
2023/05/01 11:58:03;;;;;;;1.83;1.40;;;21.70;85.10;;;;;;5030377;28;20036;-52
2023/05/01 12:00:40;;;;;;;4.88;2.25;;;21.70;84.60;;;;;;5030514;28;20599;-50
2023/05/01 12:03:13;;;;;;;1.90;1.23;;;21.50;81.50;;;;;;5030584;28;20040;-47
2023/05/01 12:05:41;;;;;;;2.28;1.48;;;21.40;83.20;;;;;;5030059;28;20116;-47
2023/05/01 12:08:11;;;;;;;3.85;2.15;;;21.20;86.50;;;;;;5030567;28;20025;-47
2023/05/01 12:10:40;;;;;;;2.30;1.35;;;21.30;80.50;;;;;;5030001;28;20052;-47
2023/05/01 12:13:07;;;;;;;;;;;21.30;82.50;;;;;;5031325;28;20358;-48
2023/05/01 12:15:39;;;;;;;4.18;1.90;;;21.30;83.80;;;;;;5030072;28;19909;-52
2023/05/01 12:18:05;;;;;;;3.13;1.73;;;21.10;82.50;;;;;;5030313;28;20489;-46
2023/05/01 12:20:39;;;;;;;2.35;1.40;;;21.00;84.80;;;;;;5030345;28;20083;-47
2023/05/01 12:23:06;;;;;;;2.40;1.58;;;20.80;84.90;;;;;;5030642;28;20038;-47
2023/05/01 12:25:33;;;;;;;3.15;1.90;;;20.70;85.90;;;;;;5030102;28;20041;-47
2023/05/01 12:28:06;;;;;;;1.85;1.20;;;20.90;81.40;;;;;;5030162;28;20083;-47
2023/05/01 12:30:32;;;;;;;1.48;1.00;;;21.00;80.50;;;;;;5030449;28;20034;-47
2023/05/01 12:32:58;;;;;;;2.97;1.67;;;20.90;78.80;;;;;;5030398;28;20025;-47
2023/05/01 12:35:30;;;;;;;2.30;1.30;;;21.00;77.80;;;;;;5030209;28;20398;-48
2023/05/01 12:37:57;;;;;;;2.38;1.42;;;21.10;79.60;;;;;;5030258;28;20053;-49
2023/05/01 12:40:23;;;;;;;1.52;0.85;;;21.20;78.30;;;;;;5030268;28;20413;-49
2023/05/01 12:42:56;;;;;;;2.40;1.17;;;21.20;81.30;;;;;;5030418;28;20083;-50
2023/05/01 12:45:23;;;;;;;3.58;1.50;;;21.30;79.60;;;;;;5029813;28;20064;-50
2023/05/01 12:47:49;;;;;;;1.88;1.10;;;21.30;78.60;;;;;;5030017;28;20101;-47
2023/05/01 12:50:15;;;;;;;2.15;1.23;;;21.50;76.60;;;;;;5030194;28;20107;-52
2023/05/01 12:52:41;;;;;;;2.40;1.13;;;21.40;77.10;;;;;;5030572;28;20037;-49
2023/05/01 12:55:08;;;;;;;1.67;0.93;;;21.60;80.50;;;;;;5030023;28;20036;-47
2023/05/01 12:57:34;;;;;;;2.15;1.67;;;21.80;75.10;;;;;;5030252;28;20030;-47